Time;durP1;ratioP1;P1;durP2;ratioP2;P2;SDS_P1;SDS_P2;PMS_P1;PMS_P2;Temp;Humidity;BMP_temperature;BMP_pressure;BME280_temperature;BME280_humidity;BME280_pressure;Samples;Min_cycle;Max_cycle;Signal;HPM_P1;HPM_P2
2022/01/18 00:00:44;;;;;;;53.03;9.52;;;;;;;3.71;100.00;103816.19;5035001;28;20033;-78
2022/01/18 00:03:10;;;;;;;44.72;8.40;;;;;;;3.75;100.00;103810.28;5050677;28;20033;-78
2022/01/18 00:05:37;;;;;;;45.83;9.05;;;;;;;3.77;100.00;103811.25;5050740;28;20045;-78
2022/01/18 00:08:03;;;;;;;48.65;9.23;;;;;;;3.79;100.00;103807.00;5051948;28;20021;-78
2022/01/18 00:10:31;;;;;;;37.83;9.35;;;;;;;3.81;100.00;103813.25;5001363;28;20060;-78
2022/01/18 00:15:53;;;;;;;33.72;7.93;;;;;;;3.87;100.00;103818.78;5050479;28;20056;-78
2022/01/18 00:18:18;;;;;;;41.65;8.73;;;;;;;3.90;100.00;103818.06;5050719;28;20044;-79
2022/01/18 00:21:00;;;;;;;37.65;7.10;;;;;;;3.92;100.00;103816.41;5050470;28;20021;-78
2022/01/18 00:23:26;;;;;;;47.67;7.32;;;;;;;3.95;100.00;103820.94;5051903;28;20503;-79
2022/01/18 00:25:56;;;;;;;45.78;7.90;;;;;;;3.94;100.00;103812.16;5050182;28;20139;-79
2022/01/18 00:28:26;;;;;;;31.48;7.60;;;;;;;3.96;100.00;103822.75;5051742;28;20052;-79
2022/01/18 00:35:58;;;;;;;32.97;8.43;;;;;;;4.01;100.00;103839.63;5030278;28;20362;-80
2022/01/18 00:38:43;;;;;;;40.00;8.02;;;;;;;4.01;100.00;103831.75;5015268;28;20128;-80
2022/01/18 00:41:08;;;;;;;34.90;7.45;;;;;;;4.05;100.00;103844.19;5016487;28;20037;-80
2022/01/18 00:43:34;;;;;;;37.97;7.38;;;;;;;4.06;100.00;103846.00;5013955;28;20080;-80
2022/01/18 00:45:59;;;;;;;42.63;10.30;;;;;;;4.06;100.00;103843.38;5014301;28;20037;-81
2022/01/18 00:48:25;;;;;;;44.20;8.05;;;;;;;4.08;100.00;103852.25;4997513;28;20036;-80
2022/01/18 00:50:52;;;;;;;42.25;7.90;;;;;;;4.09;100.00;103854.03;5029559;28;20140;-81
2022/01/18 00:53:19;;;;;;;49.00;9.05;;;;;;;4.09;100.00;103851.41;5031749;28;20037;-80
2022/01/18 00:56:04;;;;;;;42.78;8.88;;;;;;;4.07;100.00;103850.44;5030206;28;20055;-81
2022/01/18 00:58:30;;;;;;;49.65;8.60;;;;;;;4.12;100.00;103861.16;5030223;28;20438;-81
2022/01/18 01:00:56;;;;;;;42.08;8.60;;;;;;;4.13;100.00;103868.19;5020127;28;20044;-81
2022/01/18 01:03:22;;;;;;;34.28;8.52;;;;;;;4.14;100.00;103864.78;5051230;28;20083;-81
2022/01/18 01:05:47;;;;;;;37.60;8.85;;;;;;;4.14;100.00;103860.44;5033269;28;20032;-80
2022/01/18 01:08:13;;;;;;;40.10;8.63;;;;;;;4.17;100.00;103859.69;5016488;28;20136;-80
2022/01/18 01:10:38;;;;;;;40.35;9.40;;;;;;;4.17;100.00;103849.19;5033255;28;20055;-81
2022/01/18 01:13:07;;;;;;;39.55;8.90;;;;;;;4.17;100.00;103842.22;5032837;28;20634;-81
2022/01/18 01:15:40;;;;;;;39.40;8.88;;;;;;;4.18;100.00;103846.66;5015745;28;20041;-81
2022/01/18 01:18:19;;;;;;;47.65;9.00;;;;;;;4.16;100.00;103845.69;5032617;28;20025;-81
2022/01/18 01:41:41;;;;;;;42.13;9.23;;;;;;;4.22;100.00;103840.75;5045901;28;20117;-81
2022/01/18 01:43:10;;;;;;;45.33;9.50;;;;;;;4.23;100.00;103834.69;5016984;28;20131;-81
2022/01/18 01:45:36;;;;;;;57.70;10.00;;;;;;;4.19;100.00;103827.47;5030710;28;20033;-81
2022/01/18 01:48:02;;;;;;;46.75;10.63;;;;;;;4.20;100.00;103829.25;5030179;28;20458;-81
2022/01/18 01:50:42;;;;;;;45.60;10.95;;;;;;;4.21;100.00;103832.81;5029126;28;20117;-81
2022/01/18 01:53:09;;;;;;;50.90;9.90;;;;;;;4.19;100.00;103840.59;5029140;28;20117;-81
2022/01/18 01:55:34;;;;;;;33.85;9.52;;;;;;;4.18;100.00;103836.16;5029550;28;20132;-81
2022/01/18 01:58:00;;;;;;;47.63;9.93;;;;;;;4.19;100.00;103826.56;5029348;28;20112;-81
2022/01/18 02:00:26;;;;;;;49.00;11.07;;;;;;;4.18;100.00;103830.94;5029414;28;20056;-81
2022/01/18 02:12:50;;;;;;;38.70;10.30;;;;;;;4.20;100.00;103849.34;5427708;23;20101;31
2022/01/18 02:21:48;;;;;;;38.70;9.88;;;;;;;4.19;100.00;103855.44;4772047;30;20499;-78
2022/01/18 02:24:15;;;;;;;34.80;10.73;;;;;;;4.18;100.00;103848.34;4780841;29;20141;-78
2022/01/18 02:26:40;;;;;;;43.35;10.20;;;;;;;4.18;100.00;103850.97;4806146;29;20066;-78
2022/01/18 02:29:08;;;;;;;42.67;11.20;;;;;;;4.16;100.00;103842.16;4806171;29;20074;-78
2022/01/18 02:31:34;;;;;;;46.72;11.10;;;;;;;4.16;100.00;103843.06;4806176;29;20023;-78
2022/01/18 02:34:05;;;;;;;38.85;10.77;;;;;;;4.15;100.00;103843.84;4805985;29;20058;-78
2022/01/18 02:36:32;;;;;;;36.95;10.35;;;;;;;4.17;100.00;103836.97;4790060;29;20114;-78
2022/01/18 02:38:58;;;;;;;60.50;11.68;;;;;;;4.18;100.00;103849.28;4774830;29;20039;-78
2022/01/18 02:41:29;;;;;;;41.20;11.32;;;;;;;4.20;100.00;103846.72;4774918;29;20134;-78
2022/01/18 02:44:06;;;;;;;37.47;10.32;;;;;;;4.22;100.00;103835.50;4774623;29;20137;-78
2022/01/18 02:46:33;;;;;;;43.70;11.90;;;;;;;4.20;100.00;103834.50;4806262;29;20407;-78
2022/01/18 02:49:00;;;;;;;48.95;9.75;;;;;;;4.21;100.00;103831.06;4805878;29;20038;-78
2022/01/18 02:51:26;;;;;;;36.90;10.77;;;;;;;4.20;100.00;103828.34;4789731;29;20166;-78
2022/01/18 02:53:52;;;;;;;53.20;11.48;;;;;;;4.20;100.00;103825.75;4805823;29;20050;-78
2022/01/18 02:56:18;;;;;;;47.42;12.18;;;;;;;4.19;100.00;103829.19;4789426;29;20039;-78
2022/01/18 02:58:43;;;;;;;41.40;10.57;;;;;;;4.20;100.00;103829.25;4789422;29;20038;-78
2022/01/18 03:03:36;;;;;;;55.95;11.85;;;;;;;4.20;100.00;103831.88;4786420;29;20421;-78
2022/01/18 03:06:06;;;;;;;54.47;12.90;;;;;;;4.20;100.00;103831.88;4771733;30;20480;-78
2022/01/18 03:08:33;;;;;;;55.05;12.18;;;;;;;4.19;100.00;103835.34;4787725;29;20134;-78
2022/01/18 03:11:00;;;;;;;52.65;12.52;;;;;;;4.17;100.00;103836.06;4771381;30;20023;-78
2022/01/18 03:13:26;;;;;;;49.38;12.30;;;;;;;4.17;100.00;103836.06;4787547;29;20058;-78
2022/01/18 03:15:52;;;;;;;49.55;11.98;;;;;;;4.17;100.00;103842.22;4770870;30;20036;-78
2022/01/18 03:18:18;;;;;;;51.50;12.88;;;;;;;4.17;100.00;103841.31;4777555;29;20063;-78
2022/01/18 03:20:43;;;;;;;51.75;12.98;;;;;;;4.15;100.00;103842.97;4787555;29;20039;-78
2022/01/18 03:23:19;;;;;;;55.42;13.63;;;;;;;4.13;100.00;103845.53;4787394;29;20054;-78
2022/01/18 03:25:57;;;;;;;49.90;12.18;;;;;;;4.11;100.00;103841.91;4787601;29;20476;-78
2022/01/18 03:28:24;;;;;;;51.63;13.07;;;;;;;4.11;100.00;103844.53;4787605;29;20035;-78
2022/01/18 03:30:57;;;;;;;50.78;12.52;;;;;;;4.11;100.00;103848.88;4770955;29;20031;-78
2022/01/18 03:33:24;;;;;;;52.50;12.82;;;;;;;4.12;100.00;103850.69;4787032;29;20058;-78
2022/01/18 03:35:53;;;;;;;58.15;13.60;;;;;;;4.10;100.00;103845.34;4787358;29;20096;-78
2022/01/18 03:38:22;;;;;;;56.03;13.35;;;;;;;4.11;100.00;103847.16;4787271;29;20039;-78
2022/01/18 03:40:48;;;;;;;73.53;15.63;;;;;;;4.08;100.00;103847.91;4787286;29;20107;-78
2022/01/18 03:43:14;;;;;;;59.22;13.77;;;;;;;4.08;100.00;103845.28;4787492;30;20130;-78
2022/01/18 03:45:45;;;;;;;48.22;12.00;;;;;;;4.07;100.00;103846.06;4787194;29;20542;-78
2022/01/18 03:48:15;;;;;;;;;;;;;;;4.11;100.00;103855.03;4771373;30;20135;-79
2022/01/18 03:50:42;;;;;;;54.63;13.40;;;;;;;4.06;100.00;103846.91;4786909;29;19980;-78
2022/01/18 03:53:09;;;;;;;60.50;14.30;;;;;;;4.06;100.00;103860.03;4786930;29;20511;-78
2022/01/18 03:55:35;;;;;;;51.15;13.05;;;;;;;4.06;100.00;103848.63;4770692;30;20106;-78
2022/01/18 03:58:00;;;;;;;46.75;12.77;;;;;;;4.07;100.00;103856.56;4785533;29;20054;-78
2022/01/18 04:00:27;;;;;;;59.70;13.55;;;;;;;4.05;100.00;103852.94;4780584;30;20092;-78
2022/01/18 04:02:53;;;;;;;47.25;13.07;;;;;;;4.03;100.00;103853.69;4770459;29;20456;-78
2022/01/18 04:05:19;;;;;;;53.83;13.80;;;;;;;4.04;100.00;103860.75;4770467;30;20165;-78
2022/01/18 04:07:45;;;;;;;59.83;14.30;;;;;;;4.02;100.00;103865.00;4786581;29;20134;-78
2022/01/18 04:10:11;;;;;;;43.03;13.60;;;;;;;4.03;100.00;103866.81;4785160;29;20047;-78
2022/01/18 04:12:38;;;;;;;42.92;12.13;;;;;;;4.01;100.00;103871.09;4786697;29;20138;-78
2022/01/18 04:15:11;;;;;;;58.38;15.05;;;;;;;4.02;100.00;103875.50;4755413;30;20043;-78
2022/01/18 04:30:40;;;;;;;48.25;12.50;;;;;;;3.94;100.00;103875.09;4768248;30;20031;-78
2022/01/18 04:33:06;;;;;;;42.92;13.57;;;;;;;3.93;100.00;103870.69;4742123;30;20485;-78
2022/01/18 04:35:31;;;;;;;45.38;14.05;;;;;;;3.94;100.00;103875.09;4752158;30;20039;-78
2022/01/18 04:37:57;;;;;;;42.25;13.50;;;;;;;3.93;100.00;103872.38;4737277;30;20056;-78
2022/01/18 04:40:28;;;;;;;50.97;14.88;;;;;;;3.94;100.00;103890.81;4752144;30;20055;-78
2022/01/18 04:50:50;;;;;;;41.03;12.30;;;;;;;3.91;100.00;103867.06;4767758;30;20051;-78
2022/01/18 04:53:16;;;;;;;35.38;11.68;;;;;;;3.91;100.00;103877.56;4751912;30;20032;-78
2022/01/18 04:55:41;;;;;;;46.20;13.57;;;;;;;3.87;100.00;103876.47;4766442;30;20055;-78
2022/01/18 04:58:07;;;;;;;44.70;12.68;;;;;;;3.84;100.00;103878.94;4751667;30;20043;-78
2022/01/18 05:00:33;;;;;;;40.72;12.82;;;;;;;3.87;100.00;103886.06;4775946;30;20114;-78
2022/01/18 05:02:58;;;;;;;42.63;13.82;;;;;;;3.88;100.00;103887.84;4785360;29;20400;-78
2022/01/18 05:05:28;;;;;;;42.95;13.45;;;;;;;3.84;100.00;103884.19;4785501;29;20126;-78
2022/01/18 05:08:02;;;;;;;42.83;13.23;;;;;;;3.84;100.00;103892.03;4785443;29;20071;-78
2022/01/18 05:10:29;;;;;;;42.65;11.65;;;;;;;3.85;100.00;103898.19;4785414;29;20143;-78
2022/01/18 05:12:57;;;;;;;34.70;12.18;;;;;;;3.86;100.00;103898.28;4784042;30;20499;-78
2022/01/18 05:20:54;;;;;;;45.17;12.95;;;;;;;3.84;100.00;103894.66;4769011;30;20054;-78
2022/01/18 05:23:20;;;;;;;45.97;12.63;;;;;;;3.84;100.00;103893.78;4785239;29;20039;-78
2022/01/18 05:25:46;;;;;;;42.95;12.73;;;;;;;3.83;100.00;103890.25;4769040;30;20039;-78
2022/01/18 05:28:13;;;;;;;50.75;13.35;;;;;;;3.81;100.00;103891.88;4785113;29;20054;-78
2022/01/18 05:30:40;;;;;;;48.85;13.48;;;;;;;3.83;100.00;103889.31;4785172;30;20095;-78
2022/01/18 05:33:06;;;;;;;45.50;14.60;;;;;;;3.81;100.00;103894.50;4785267;30;20043;-78
2022/01/18 05:35:32;;;;;;;48.38;14.23;;;;;;;3.82;100.00;103895.41;4754151;30;20515;-78
2022/01/18 05:37:58;;;;;;;42.65;13.15;;;;;;;3.79;100.00;103890.88;4783633;29;20070;-78
2022/01/18 05:40:23;;;;;;;43.00;12.75;;;;;;;3.81;100.00;103891.00;4754111;30;20141;-78
2022/01/18 05:42:49;;;;;;;45.60;13.90;;;;;;;3.79;100.00;103884.75;4754072;30;20547;-78
2022/01/18 05:45:15;;;;;;;38.72;12.80;;;;;;;3.79;100.00;103880.41;4783857;29;20155;-78
2022/01/18 05:47:42;;;;;;;43.25;13.68;;;;;;;3.79;100.00;103883.03;4784952;30;20057;-78
2022/01/18 05:50:10;;;;;;;48.65;14.27;;;;;;;3.79;100.00;103882.13;4784970;30;20379;-78
2022/01/18 05:52:35;;;;;;;34.17;12.98;;;;;;;3.78;100.00;103883.81;4768996;30;20127;-78
2022/01/18 05:55:02;;;;;;;45.08;12.95;;;;;;;3.75;100.00;103885.38;4784683;29;20436;-78
2022/01/18 05:57:27;;;;;;;46.60;13.30;;;;;;;3.74;100.00;103878.34;4765646;30;20032;-78
2022/01/18 06:00:00;;;;;;;39.67;12.38;;;;;;;3.75;100.00;103881.03;4751046;30;20039;-78
2022/01/18 06:03:29;;;;;;;36.97;12.73;;;;;;;3.73;100.00;103877.44;4765926;30;20059;-78
2022/01/18 06:08:05;;;;;;;43.22;13.20;;;;;;;3.73;100.00;103876.53;4750796;30;20495;-78
2022/01/18 06:10:31;;;;;;;53.63;14.07;;;;;;;3.72;100.00;103878.25;4750935;30;20031;-78
2022/01/18 06:13:00;;;;;;;50.65;14.50;;;;;;;3.67;100.00;103872.75;4767081;30;20063;-78
2022/01/18 06:15:25;;;;;;;60.30;14.07;;;;;;;3.71;100.00;103886.97;4767112;30;20036;-78
2022/01/18 06:17:51;;;;;;;72.63;16.55;;;;;;;3.71;100.00;103893.88;4772272;29;20054;-78
2022/01/18 06:20:16;;;;;;;58.83;14.82;;;;;;;3.68;100.00;103892.00;4784966;29;20156;-78
2022/01/18 06:22:42;;;;;;;72.00;14.52;;;;;;;3.69;100.00;103895.56;4768834;30;20034;-78
2022/01/18 06:25:08;;;;;;;93.03;13.43;;;;;;;3.70;100.00;103899.97;4768323;30;20399;-78
2022/01/18 06:27:34;;;;;;;72.47;15.13;;;;;;;3.67;100.00;103896.34;4768488;30;20039;-78
2022/01/18 06:30:00;;;;;;;98.65;15.60;;;;;;;3.69;100.00;103888.59;4783092;30;20486;-78
2022/01/18 06:32:25;;;;;;;70.35;14.27;;;;;;;3.69;100.00;103888.59;4784650;30;20547;-78
2022/01/18 06:34:51;;;;;;;55.53;13.32;;;;;;;3.71;100.00;103886.03;4768344;30;20042;-78
2022/01/18 06:37:17;;;;;;;74.13;13.32;;;;;;;3.66;100.00;103878.84;4768685;30;20241;-78
2022/01/18 06:39:42;;;;;;;70.50;13.13;;;;;;;3.65;100.00;103882.25;4784654;29;20110;-78
2022/01/18 06:42:14;;;;;;;104.28;14.45;;;;;;;3.64;100.00;103884.81;4768413;30;20417;-78
2022/01/18 06:44:40;;;;;;;54.47;14.52;;;;;;;3.65;100.00;103884.88;4768239;30;20047;-79
2022/01/18 06:47:06;;;;;;;73.43;12.25;;;;;;;3.65;100.00;103887.50;4784474;30;20476;-78
2022/01/18 06:49:31;;;;;;;65.15;13.23;;;;;;;3.66;100.00;103891.94;4769015;30;20036;-78
2022/01/18 06:51:57;;;;;;;85.45;13.82;;;;;;;3.67;100.00;103882.34;4786755;29;20036;-78
2022/01/18 06:54:23;;;;;;;65.53;14.18;;;;;;;3.67;100.00;103888.50;4771589;30;20070;-78
2022/01/18 06:56:49;;;;;;;88.00;14.05;;;;;;;3.66;100.00;103877.94;4771727;30;20118;-78
2022/01/18 06:59:16;;;;;;;78.63;15.35;;;;;;;3.65;100.00;103887.50;4787749;29;20093;-78
2022/01/18 07:01:42;;;;;;;80.93;14.95;;;;;;;3.67;100.00;103892.84;4758399;30;20153;-78
2022/01/18 07:04:07;;;;;;;64.53;15.15;;;;;;;3.69;100.00;103892.94;4771486;30;20035;-78
2022/01/18 07:06:34;;;;;;;58.00;14.23;;;;;;;3.69;100.00;103906.03;4753631;30;20351;-79
2022/01/18 07:09:00;;;;;;;67.97;14.90;;;;;;;3.67;100.00;103912.06;4770016;30;20519;-78
2022/01/18 07:11:26;;;;;;;60.30;12.85;;;;;;;3.66;100.00;103907.66;4768468;30;20036;-78
2022/01/18 07:13:52;;;;;;;71.30;13.18;;;;;;;3.66;100.00;103909.38;4769920;30;20060;-78
2022/01/18 07:16:18;;;;;;;68.13;13.32;;;;;;;3.63;100.00;103907.47;4768566;30;20047;-78
2022/01/18 07:18:43;;;;;;;90.15;14.43;;;;;;;3.61;100.00;103914.38;4778199;29;20363;-78
2022/01/18 07:21:09;;;;;;;60.55;13.75;;;;;;;3.61;100.00;103913.44;4787553;30;20036;-78
2022/01/18 07:23:38;;;;;;;72.22;13.95;;;;;;;3.61;100.00;103913.44;4771163;30;20040;-78
2022/01/18 07:26:05;;;;;;;56.85;13.32;;;;;;;3.59;100.00;103918.63;4771063;30;20035;-78
2022/01/18 07:28:30;;;;;;;52.38;13.57;;;;;;;3.60;100.00;103917.78;4771283;30;20132;-78
2022/01/18 07:30:56;;;;;;;65.35;13.77;;;;;;;3.62;100.00;103925.75;4785843;29;20055;-78
2022/01/18 07:33:22;;;;;;;55.28;12.25;;;;;;;3.62;100.00;103923.13;4771146;30;20114;-79
2022/01/18 07:35:48;;;;;;;49.70;12.93;;;;;;;3.60;100.00;103920.41;4785923;29;20482;-79
2022/01/18 07:38:17;;;;;;;75.75;12.52;;;;;;;3.59;100.00;103926.47;4771215;30;20420;-79
2022/01/18 07:40:45;;;;;;;75.50;13.82;;;;;;;3.60;100.00;103916.88;4787391;29;20030;-79
2022/01/18 07:43:11;;;;;;;75.65;13.50;;;;;;;3.60;100.00;103927.38;4787286;29;20062;-78
2022/01/18 07:45:37;;;;;;;73.18;12.35;;;;;;;3.58;100.00;103924.66;4800855;29;20035;-80
2022/01/18 07:48:03;;;;;;;56.67;12.40;;;;;;;3.58;100.00;103922.03;4770529;30;20379;-80
2022/01/18 07:50:31;;;;;;;73.43;12.23;;;;;;;3.59;100.00;103929.09;4770427;29;20027;-80
2022/01/18 07:52:56;;;;;;;59.75;11.13;;;;;;;3.60;100.00;103922.13;4786752;29;20444;-80
2022/01/18 07:55:22;;;;;;;51.35;11.70;;;;;;;3.60;100.00;103922.13;4785416;29;20035;-80
2022/01/18 07:57:47;;;;;;;57.72;11.45;;;;;;;3.61;100.00;103926.53;4786583;29;20131;-80
2022/01/18 08:00:16;;;;;;;63.78;10.85;;;;;;;3.61;100.00;103927.47;4755230;30;20508;-81
2022/01/18 08:02:43;;;;;;;63.60;10.95;;;;;;;3.62;100.00;103933.59;4770735;30;20437;-81
2022/01/18 08:05:11;;;;;;;62.75;11.15;;;;;;;3.61;100.00;103930.09;4770263;30;20031;-81
2022/01/18 08:07:36;;;;;;;52.70;9.98;;;;;;;3.59;100.00;103936.97;4776534;30;20428;-81
2022/01/18 08:10:04;;;;;;;92.35;10.82;;;;;;;3.59;100.00;103939.59;4755198;30;20031;-81
2022/01/18 08:12:29;;;;;;;53.92;10.40;;;;;;;3.59;100.00;103951.78;4769971;30;20062;-80
2022/01/18 08:15:00;;;;;;;66.72;11.38;;;;;;;3.54;100.00;103933.19;4785299;29;20035;-78
2022/01/18 08:17:26;;;;;;;49.50;10.80;;;;;;;3.60;100.00;103938.75;4784511;29;20395;-78
2022/01/18 08:19:52;;;;;;;43.08;11.88;;;;;;;3.60;100.00;103935.25;4774799;29;20131;-78
2022/01/18 08:22:18;;;;;;;75.90;11.73;;;;;;;3.60;100.00;103928.28;4770463;30;20051;-79
2022/01/18 08:24:43;;;;;;;103.57;12.93;;;;;;;3.59;100.00;103928.19;4769961;29;20118;-78
2022/01/18 08:27:09;;;;;;;59.15;10.88;;;;;;;3.62;100.00;103937.13;4770002;30;20122;-78
2022/01/18 08:29:36;;;;;;;66.70;12.02;;;;;;;3.61;100.00;103935.34;4770082;29;20138;-78
2022/01/18 08:32:04;;;;;;;56.88;11.65;;;;;;;3.64;100.00;103932.88;4769764;30;20566;-78
2022/01/18 08:34:29;;;;;;;46.13;11.57;;;;;;;3.64;100.00;103932.88;4786410;29;20035;-78
2022/01/18 08:36:55;;;;;;;48.22;11.43;;;;;;;3.67;100.00;103930.41;4799866;29;20058;-78
2022/01/18 08:39:20;;;;;;;32.83;10.98;;;;;;;3.70;100.00;103928.78;4784960;29;20051;-78
2022/01/18 08:41:46;;;;;;;42.33;11.20;;;;;;;3.73;100.00;103929.84;4769925;30;20046;-78
2022/01/18 08:44:12;;;;;;;42.22;11.05;;;;;;;3.76;100.00;103926.50;4799878;29;20035;-78
2022/01/18 08:46:37;;;;;;;33.75;10.48;;;;;;;3.78;100.00;103923.16;4785066;29;20116;-78
2022/01/18 08:49:05;;;;;;;55.58;11.30;;;;;;;3.81;100.00;103927.69;4786084;29;20062;-78
2022/01/18 08:51:31;;;;;;;34.85;10.98;;;;;;;3.83;100.00;103926.03;4784288;29;20039;-78
2022/01/18 08:53:57;;;;;;;39.90;10.88;;;;;;;3.82;100.00;103927.75;4769733;30;20210;-78
2022/01/18 08:56:23;;;;;;;31.08;11.20;;;;;;;3.84;100.00;103939.22;4786009;29;20039;-78
2022/01/18 08:58:49;;;;;;;35.28;11.05;;;;;;;3.84;100.00;103944.47;4784492;30;20377;-78
2022/01/18 09:01:16;;;;;;;54.10;11.32;;;;;;;3.86;100.00;103947.19;4769798;30;20105;-78
2022/01/18 09:03:42;;;;;;;37.25;10.98;;;;;;;3.84;100.00;103940.97;4769062;29;20031;-78
2022/01/18 09:06:08;;;;;;;51.42;11.10;;;;;;;3.87;100.00;103943.75;4785771;29;20503;-78
2022/01/18 09:08:37;;;;;;;46.97;10.52;;;;;;;3.84;100.00;103938.34;4784830;29;20027;-78
2022/01/18 09:11:03;;;;;;;45.30;10.82;;;;;;;3.88;100.00;103938.59;4784986;29;20120;-78
2022/01/18 09:13:31;;;;;;;38.08;10.52;;;;;;;3.90;100.00;103945.63;4767625;29;20200;-78
2022/01/18 09:15:56;;;;;;;29.83;10.48;;;;;;;3.91;100.00;103937.88;4769374;29;20382;-78
2022/01/18 09:18:22;;;;;;;32.60;11.20;;;;;;;3.92;100.00;103944.91;4784460;29;20051;-78
2022/01/18 09:20:48;;;;;;;40.58;11.48;;;;;;;3.94;100.00;103940.66;4769057;30;20047;-78
2022/01/18 09:23:13;;;;;;;31.77;10.60;;;;;;;3.98;100.00;103940.00;4783855;30;20043;-78
2022/01/18 09:25:40;;;;;;;38.05;11.27;;;;;;;3.99;100.00;103941.78;4769475;29;20043;-78
2022/01/18 09:28:05;;;;;;;41.53;12.73;;;;;;;4.03;100.00;103945.47;4769128;29;20031;-78
2022/01/18 09:30:33;;;;;;;41.20;11.05;;;;;;;4.09;100.00;103953.69;4769145;30;20215;-78
2022/01/18 09:33:01;;;;;;;36.10;11.52;;;;;;;4.13;100.00;103944.25;4769090;30;20055;-78
2022/01/18 09:35:26;;;;;;;36.35;12.13;;;;;;;4.15;100.00;103940.00;4785274;29;20057;-78
2022/01/18 09:37:52;;;;;;;39.83;12.48;;;;;;;4.17;100.00;103944.50;4754381;30;20047;-78
2022/01/18 09:40:20;;;;;;;46.90;13.32;;;;;;;4.19;100.00;103952.47;4769124;30;20047;-78
2022/01/18 09:42:47;;;;;;;45.90;13.65;;;;;;;4.20;100.00;103954.28;4769081;30;20063;-78
2022/01/18 09:45:15;;;;;;;43.22;13.57;;;;;;;4.24;100.00;103956.25;4785182;29;20396;-78
2022/01/18 09:47:45;;;;;;;39.28;13.13;;;;;;;4.26;100.00;103952.88;4769021;30;20039;-78
2022/01/18 09:50:13;;;;;;;50.88;14.93;;;;;;;4.28;100.00;103953.88;4785262;30;20394;-78
2022/01/18 09:52:38;;;;;;;45.00;15.63;;;;;;;4.31;100.00;103961.91;4754135;29;20211;-78
2022/01/18 09:55:07;;;;;;;54.80;17.30;;;;;;;4.32;100.00;103963.69;4753918;30;20043;-78
2022/01/18 09:57:34;;;;;;;68.93;19.77;;;;;;;4.38;100.00;103967.50;4796517;29;20468;-78
2022/01/18 09:59:59;;;;;;;57.83;17.98;;;;;;;4.43;100.00;103964.31;4798631;29;20100;-78
2022/01/18 10:02:25;;;;;;;53.47;17.70;;;;;;;4.50;100.00;103957.63;4785276;29;20035;-78
2022/01/18 10:04:53;;;;;;;54.47;16.75;;;;;;;4.55;100.00;103963.13;4768617;30;20043;-78
2022/01/18 10:07:32;;;;;;;61.45;17.98;;;;;;;4.58;100.00;103961.59;4780617;29;20611;-78
2022/01/18 10:10:05;;;;;;;46.53;16.33;;;;;;;4.63;100.00;103967.09;4780453;29;20043;-78
2022/01/18 10:12:30;;;;;;;51.75;16.50;;;;;;;4.68;100.00;103965.59;4765640;30;20062;-78
2022/01/18 10:14:59;;;;;;;60.60;18.60;;;;;;;4.76;100.00;103966.91;4765535;30;20130;-78
2022/01/18 10:17:37;;;;;;;61.13;18.25;;;;;;;4.81;100.00;103967.13;4782633;29;20039;-78
2022/01/18 10:20:19;;;;;;;58.15;19.15;;;;;;;4.89;100.00;103961.44;4784618;29;20511;-78
2022/01/18 10:22:49;;;;;;;54.97;17.55;;;;;;;4.99;100.00;103961.94;4768739;30;20096;-78
2022/01/18 10:25:25;;;;;;;55.65;17.73;;;;;;;5.06;100.00;103967.56;4768960;30;20050;-78
2022/01/18 10:27:53;;;;;;;58.85;18.95;;;;;;;5.13;100.00;103972.31;4769082;30;20043;-78
2022/01/18 10:30:49;;;;;;;55.50;18.80;;;;;;;5.20;100.00;103962.13;4770339;30;20420;-78
2022/01/18 10:33:17;;;;;;;47.28;15.70;;;;;;;5.22;100.00;103956.13;4769859;30;20048;-78
2022/01/18 10:36:09;;;;;;;49.43;16.13;;;;;;;5.28;100.00;103960.78;4760167;30;20035;-78
2022/01/18 10:38:37;;;;;;;53.67;15.93;;;;;;;5.35;100.00;103950.66;4786799;29;20307;-78
2022/01/18 10:41:28;;;;;;;47.33;16.35;;;;;;;5.39;100.00;103952.59;4788236;29;20088;-78
2022/01/18 10:44:08;;;;;;;48.80;16.20;;;;;;;5.41;100.00;103951.78;4771734;30;20039;-78
2022/01/18 10:46:40;;;;;;;42.25;15.25;;;;;;;5.44;100.00;103944.97;4787961;29;20038;-78
2022/01/18 10:49:06;;;;;;;;;;;;;;;5.52;100.00;103946.22;4788418;29;20360;-78
2022/01/18 10:51:34;;;;;;;40.75;14.07;;;;;;;5.55;100.00;103934.97;4788122;29;19917;-78
2022/01/18 10:54:11;;;;;;;45.88;14.73;;;;;;;5.64;100.00;103935.41;4787945;29;20077;-78
2022/01/18 10:56:37;;;;;;;45.10;15.30;;;;;;;5.77;100.00;103924.63;4787936;29;20126;-78
2022/01/18 10:59:03;;;;;;;40.95;15.55;;;;;;;5.86;100.00;103934.69;4783379;29;20027;-78
2022/01/18 11:01:29;;;;;;;51.15;16.13;;;;;;;5.89;100.00;103921.69;4768730;30;20093;-78
2022/01/18 11:04:16;;;;;;;39.92;14.93;;;;;;;5.97;100.00;103917.72;4769794;30;20516;-78
2022/01/18 11:06:56;;;;;;;36.00;14.27;;;;;;;6.00;100.00;103922.22;4769972;30;20114;-77
2022/01/18 11:09:21;;;;;;;41.83;16.02;;;;;;;6.07;100.00;103920.78;4769712;30;20479;-78
2022/01/18 11:11:48;;;;;;;41.40;14.95;;;;;;;6.10;100.00;103921.81;4769595;30;20138;-78
2022/01/18 11:14:20;;;;;;;41.45;16.08;;;;;;;6.16;100.00;103924.72;4769715;30;20514;-78
2022/01/18 11:16:50;;;;;;;40.83;15.75;;;;;;;6.27;100.00;103916.41;4783298;29;20048;-78
2022/01/18 11:21:48;;;;;;;44.80;14.70;;;;;;;6.43;99.52;103917.19;4783398;29;20050;-78
2022/01/18 11:24:15;;;;;;;37.17;12.73;;;;;;;6.46;98.41;103919.03;4769294;30;20071;-78
2022/01/18 11:26:43;;;;;;;38.08;13.20;;;;;;;6.50;97.93;103915.69;4783287;30;20118;-78
2022/01/18 11:29:10;;;;;;;45.90;13.10;;;;;;;6.59;97.94;103909.94;4768123;30;20155;-78
2022/01/18 11:31:36;;;;;;;35.13;11.55;;;;;;;6.67;96.73;103912.06;4783035;30;20449;-78
2022/01/18 11:34:03;;;;;;;34.47;11.10;;;;;;;6.82;96.39;103908.31;4782942;29;20035;-78
2022/01/18 11:36:35;;;;;;;36.70;12.27;;;;;;;7.01;96.54;103902.09;4782294;29;20047;-78
2022/01/18 11:39:05;;;;;;;36.25;11.05;;;;;;;7.22;95.40;103905.63;4769326;30;20530;-78
2022/01/18 11:41:34;;;;;;;29.60;7.93;;;;;;;7.36;90.96;103906.16;4768060;30;20044;-78
2022/01/18 11:44:11;;;;;;;31.60;7.68;;;;;;;7.44;90.65;103898.56;4767719;30;20027;-78
2022/01/18 11:46:41;;;;;;;30.98;7.53;;;;;;;7.62;92.44;103890.50;4767807;30;20040;-77
2022/01/18 11:49:09;;;;;;;33.25;8.55;;;;;;;7.67;87.15;103881.94;4768396;30;20043;-78
2022/01/18 11:51:48;;;;;;;32.33;8.30;;;;;;;7.75;87.77;103891.03;4753165;30;20039;-78
2022/01/18 11:54:36;;;;;;;35.90;7.47;;;;;;;7.85;86.71;103887.00;4769188;30;20054;-78
2022/01/18 11:57:23;;;;;;;32.45;6.05;;;;;;;7.89;85.04;103888.94;4769303;30;20048;-78
2022/01/18 11:59:53;;;;;;;29.55;6.57;;;;;;;7.95;84.95;103891.78;4765428;30;20114;-78
2022/01/18 12:02:48;;;;;;;39.35;8.38;;;;;;;8.10;86.23;103894.09;4767308;30;20123;-78
2022/01/18 12:05:19;;;;;;;30.13;7.90;;;;;;;8.14;83.43;103892.50;4780815;29;20139;-77
2022/01/18 12:07:47;;;;;;;40.72;8.63;;;;;;;8.10;84.67;103887.94;4768313;30;20059;-78
2022/01/18 12:10:27;;;;;;;30.42;8.25;;;;;;;8.09;84.03;103888.78;4768593;30;20035;-78
2022/01/18 12:12:55;;;;;;;26.33;7.33;;;;;;;8.21;84.56;103888.31;4767411;30;20459;-77
2022/01/18 12:15:23;;;;;;;24.25;7.68;;;;;;;8.41;88.57;103884.72;4762356;30;20048;-77
2022/01/18 12:17:56;;;;;;;31.98;7.97;;;;;;;8.71;87.47;103876.06;4767085;29;20046;-77
2022/01/18 12:20:34;;;;;;;26.30;8.40;;;;;;;8.98;84.83;103890.22;4769866;30;20046;-77
2022/01/18 12:23:04;;;;;;;21.77;6.30;;;;;;;8.97;80.19;103888.41;4785895;29;20046;-77
2022/01/18 12:25:34;;;;;;;27.48;7.20;;;;;;;9.10;80.68;103878.22;4770064;29;20050;-77
2022/01/18 12:34:33;;;;;;;25.67;7.03;;;;;;;9.22;84.64;103868.06;4785687;29;20043;-77
2022/01/18 12:37:08;;;;;;;26.40;6.90;;;;;;;9.19;83.75;103865.31;4780254;29;20042;-78
2022/01/18 12:45:25;;;;;;;38.03;7.25;;;;;;;8.72;81.94;103860.25;4784563;29;20057;-78
2022/01/18 12:48:03;;;;;;;25.30;6.85;;;;;;;8.63;81.38;103853.75;4783881;29;20118;-77